sensor_id;sensor_type;location;lat;lon;timestamp;temperature;humidity
47791;DHT22;33547;49.044;1.156;2022-11-15T00:00:28;18.50;63.00
47791;DHT22;33547;49.044;1.156;2022-11-15T00:02:55;18.50;63.00
47791;DHT22;33547;49.044;1.156;2022-11-15T00:05:21;18.50;63.20
47791;DHT22;33547;49.044;1.156;2022-11-15T00:07:47;18.50;63.40
47791;DHT22;33547;49.044;1.156;2022-11-15T00:10:12;18.50;63.40
47791;DHT22;33547;49.044;1.156;2022-11-15T00:12:38;18.50;63.30
47791;DHT22;33547;49.044;1.156;2022-11-15T00:15:04;18.50;63.30
47791;DHT22;33547;49.044;1.156;2022-11-15T00:17:30;18.50;63.20
47791;DHT22;33547;49.044;1.156;2022-11-15T00:19:56;18.40;63.20
47791;DHT22;33547;49.044;1.156;2022-11-15T00:22:22;18.50;63.20
47791;DHT22;33547;49.044;1.156;2022-11-15T00:24:48;18.40;63.20
47791;DHT22;33547;49.044;1.156;2022-11-15T00:27:14;18.50;63.30
47791;DHT22;33547;49.044;1.156;2022-11-15T00:29:40;18.40;63.20
47791;DHT22;33547;49.044;1.156;2022-11-15T00:32:09;18.40;63.20
47791;DHT22;33547;49.044;1.156;2022-11-15T00:34:35;18.40;63.20
47791;DHT22;33547;49.044;1.156;2022-11-15T00:37:01;18.40;63.20
47791;DHT22;33547;49.044;1.156;2022-11-15T00:39:27;18.40;63.50
47791;DHT22;33547;49.044;1.156;2022-11-15T00:41:53;18.40;63.40
47791;DHT22;33547;49.044;1.156;2022-11-15T00:44:18;18.40;63.40
47791;DHT22;33547;49.044;1.156;2022-11-15T00:46:44;18.40;63.40
47791;DHT22;33547;49.044;1.156;2022-11-15T00:49:10;18.30;63.40
47791;DHT22;33547;49.044;1.156;2022-11-15T00:51:36;18.30;63.30
47791;DHT22;33547;49.044;1.156;2022-11-15T00:54:01;18.40;63.40
47791;DHT22;33547;49.044;1.156;2022-11-15T00:56:27;18.30;63.30
47791;DHT22;33547;49.044;1.156;2022-11-15T00:58:53;18.30;63.30
47791;DHT22;33547;49.044;1.156;2022-11-15T01:01:19;18.30;63.30
47791;DHT22;33547;49.044;1.156;2022-11-15T01:03:46;18.30;63.20
47791;DHT22;33547;49.044;1.156;2022-11-15T01:06:12;18.30;63.30
47791;DHT22;33547;49.044;1.156;2022-11-15T01:08:39;18.30;63.30
47791;DHT22;33547;49.044;1.156;2022-11-15T01:11:08;18.30;63.40
47791;DHT22;33547;49.044;1.156;2022-11-15T01:13:36;18.30;63.50
47791;DHT22;33547;49.044;1.156;2022-11-15T01:16:14;18.30;63.50
47791;DHT22;33547;49.044;1.156;2022-11-15T01:18:42;18.30;63.50
47791;DHT22;33547;49.044;1.156;2022-11-15T01:21:12;18.30;63.50
47791;DHT22;33547;49.044;1.156;2022-11-15T01:23:39;18.20;63.50
47791;DHT22;33547;49.044;1.156;2022-11-15T01:26:09;18.20;63.50
47791;DHT22;33547;49.044;1.156;2022-11-15T01:28:37;18.20;63.70
47791;DHT22;33547;49.044;1.156;2022-11-15T01:31:09;18.20;63.70
47791;DHT22;33547;49.044;1.156;2022-11-15T01:33:37;18.20;63.80
47791;DHT22;33547;49.044;1.156;2022-11-15T01:36:08;18.20;63.80
47791;DHT22;33547;49.044;1.156;2022-11-15T01:38:36;18.20;63.80
47791;DHT22;33547;49.044;1.156;2022-11-15T01:41:03;18.20;63.80
47791;DHT22;33547;49.044;1.156;2022-11-15T01:43:36;18.20;63.80
47791;DHT22;33547;49.044;1.156;2022-11-15T01:46:34;18.10;63.80
47791;DHT22;33547;49.044;1.156;2022-11-15T01:49:04;18.20;64.00
47791;DHT22;33547;49.044;1.156;2022-11-15T01:51:35;18.10;64.20
47791;DHT22;33547;49.044;1.156;2022-11-15T01:54:06;18.20;64.30
47791;DHT22;33547;49.044;1.156;2022-11-15T01:56:40;18.10;64.90
47791;DHT22;33547;49.044;1.156;2022-11-15T01:59:12;18.10;64.60
47791;DHT22;33547;49.044;1.156;2022-11-15T02:01:38;18.10;64.50
47791;DHT22;33547;49.044;1.156;2022-11-15T02:04:18;18.10;64.30
47791;DHT22;33547;49.044;1.156;2022-11-15T02:06:48;18.10;64.10
47791;DHT22;33547;49.044;1.156;2022-11-15T02:09:14;18.10;64.10
47791;DHT22;33547;49.044;1.156;2022-11-15T02:11:40;18.10;64.10
47791;DHT22;33547;49.044;1.156;2022-11-15T02:14:07;18.10;64.00
47791;DHT22;33547;49.044;1.156;2022-11-15T02:16:59;18.10;63.90
47791;DHT22;33547;49.044;1.156;2022-11-15T02:26:24;18.00;63.80
47791;DHT22;33547;49.044;1.156;2022-11-15T02:35:22;18.00;63.90
47791;DHT22;33547;49.044;1.156;2022-11-15T02:40:58;18.00;63.80
47791;DHT22;33547;49.044;1.156;2022-11-15T02:43:35;18.00;63.90
47791;DHT22;33547;49.044;1.156;2022-11-15T02:49:36;18.00;64.30
47791;DHT22;33547;49.044;1.156;2022-11-15T02:52:03;18.00;64.60
47791;DHT22;33547;49.044;1.156;2022-11-15T02:54:31;17.90;65.90
47791;DHT22;33547;49.044;1.156;2022-11-15T02:57:07;17.90;66.50
47791;DHT22;33547;49.044;1.156;2022-11-15T03:00:06;17.90;66.20
47791;DHT22;33547;49.044;1.156;2022-11-15T03:05:57;18.00;65.50
47791;DHT22;33547;49.044;1.156;2022-11-15T03:09:03;18.00;65.50
47791;DHT22;33547;49.044;1.156;2022-11-15T03:11:56;18.10;65.60
47791;DHT22;33547;49.044;1.156;2022-11-15T03:14:30;18.10;65.60
47791;DHT22;33547;49.044;1.156;2022-11-15T03:17:19;18.10;65.70
47791;DHT22;33547;49.044;1.156;2022-11-15T03:19:59;18.20;65.70
47791;DHT22;33547;49.044;1.156;2022-11-15T03:22:29;18.10;66.00
47791;DHT22;33547;49.044;1.156;2022-11-15T03:25:04;18.20;66.00
47791;DHT22;33547;49.044;1.156;2022-11-15T03:27:52;18.20;66.00
47791;DHT22;33547;49.044;1.156;2022-11-15T03:30:19;18.20;66.20
47791;DHT22;33547;49.044;1.156;2022-11-15T03:32:54;18.20;66.20
47791;DHT22;33547;49.044;1.156;2022-11-15T03:35:33;18.20;66.20
47791;DHT22;33547;49.044;1.156;2022-11-15T03:41:01;18.20;66.40
47791;DHT22;33547;49.044;1.156;2022-11-15T03:43:47;18.20;66.30
47791;DHT22;33547;49.044;1.156;2022-11-15T03:46:28;18.20;66.70
47791;DHT22;33547;49.044;1.156;2022-11-15T03:49:10;18.20;66.40
47791;DHT22;33547;49.044;1.156;2022-11-15T03:51:39;18.20;66.50
47791;DHT22;33547;49.044;1.156;2022-11-15T03:54:05;18.20;66.70
47791;DHT22;33547;49.044;1.156;2022-11-15T03:56:31;18.20;66.50
47791;DHT22;33547;49.044;1.156;2022-11-15T03:58:57;18.20;66.90
47791;DHT22;33547;49.044;1.156;2022-11-15T04:01:23;18.10;66.40
47791;DHT22;33547;49.044;1.156;2022-11-15T04:03:49;18.20;66.50
47791;DHT22;33547;49.044;1.156;2022-11-15T04:06:15;18.20;66.50
47791;DHT22;33547;49.044;1.156;2022-11-15T04:08:41;18.20;66.60
47791;DHT22;33547;49.044;1.156;2022-11-15T04:11:07;18.20;66.50
47791;DHT22;33547;49.044;1.156;2022-11-15T04:13:33;18.10;66.50
47791;DHT22;33547;49.044;1.156;2022-11-15T04:15:58;18.10;66.80
47791;DHT22;33547;49.044;1.156;2022-11-15T04:18:24;18.10;66.60
47791;DHT22;33547;49.044;1.156;2022-11-15T04:20:50;18.10;66.90
47791;DHT22;33547;49.044;1.156;2022-11-15T04:23:34;18.10;67.00
47791;DHT22;33547;49.044;1.156;2022-11-15T04:26:21;18.20;67.10
47791;DHT22;33547;49.044;1.156;2022-11-15T04:28:47;18.10;67.00
47791;DHT22;33547;49.044;1.156;2022-11-15T04:31:32;18.10;67.00
47791;DHT22;33547;49.044;1.156;2022-11-15T04:33:58;18.10;67.60
47791;DHT22;33547;49.044;1.156;2022-11-15T04:36:24;18.10;67.20
47791;DHT22;33547;49.044;1.156;2022-11-15T04:39:09;18.10;67.20
47791;DHT22;33547;49.044;1.156;2022-11-15T04:41:35;18.10;67.40
47791;DHT22;33547;49.044;1.156;2022-11-15T04:44:00;18.10;67.40
47791;DHT22;33547;49.044;1.156;2022-11-15T04:46:26;18.10;67.10
47791;DHT22;33547;49.044;1.156;2022-11-15T04:48:53;18.10;67.90
47791;DHT22;33547;49.044;1.156;2022-11-15T04:51:19;18.10;67.20
47791;DHT22;33547;49.044;1.156;2022-11-15T04:53:45;18.10;67.20
47791;DHT22;33547;49.044;1.156;2022-11-15T04:56:11;18.10;67.10
47791;DHT22;33547;49.044;1.156;2022-11-15T04:58:37;18.10;67.10
47791;DHT22;33547;49.044;1.156;2022-11-15T05:01:11;18.10;66.90
47791;DHT22;33547;49.044;1.156;2022-11-15T05:03:42;18.00;67.00
47791;DHT22;33547;49.044;1.156;2022-11-15T05:06:27;18.00;66.90
47791;DHT22;33547;49.044;1.156;2022-11-15T05:08:53;18.00;66.90
47791;DHT22;33547;49.044;1.156;2022-11-15T05:11:20;18.00;66.70
47791;DHT22;33547;49.044;1.156;2022-11-15T05:13:46;18.00;66.60
47791;DHT22;33547;49.044;1.156;2022-11-15T05:16:12;18.00;66.90
47791;DHT22;33547;49.044;1.156;2022-11-15T05:18:38;18.00;67.00
47791;DHT22;33547;49.044;1.156;2022-11-15T05:21:08;18.00;67.80
47791;DHT22;33547;49.044;1.156;2022-11-15T05:23:36;18.00;68.30
47791;DHT22;33547;49.044;1.156;2022-11-15T05:26:03;18.00;67.10
47791;DHT22;33547;49.044;1.156;2022-11-15T05:28:31;18.00;66.90
47791;DHT22;33547;49.044;1.156;2022-11-15T05:31:09;18.10;66.80
47791;DHT22;33547;49.044;1.156;2022-11-15T05:33:37;18.10;66.60
47791;DHT22;33547;49.044;1.156;2022-11-15T05:38:55;18.20;66.80
47791;DHT22;33547;49.044;1.156;2022-11-15T05:41:30;18.20;66.60
47791;DHT22;33547;49.044;1.156;2022-11-15T05:44:11;18.20;66.70
47791;DHT22;33547;49.044;1.156;2022-11-15T05:46:42;18.30;66.80
47791;DHT22;33547;49.044;1.156;2022-11-15T05:49:11;18.30;66.40
47791;DHT22;33547;49.044;1.156;2022-11-15T05:51:40;18.30;66.60
47791;DHT22;33547;49.044;1.156;2022-11-15T05:54:07;18.40;66.30
47791;DHT22;33547;49.044;1.156;2022-11-15T05:56:33;18.50;66.20
47791;DHT22;33547;49.044;1.156;2022-11-15T05:58:59;18.50;66.10
47791;DHT22;33547;49.044;1.156;2022-11-15T06:01:25;18.50;65.90
47791;DHT22;33547;49.044;1.156;2022-11-15T06:03:51;18.50;65.80
47791;DHT22;33547;49.044;1.156;2022-11-15T06:06:17;18.50;65.70
47791;DHT22;33547;49.044;1.156;2022-11-15T06:08:43;18.50;66.20
47791;DHT22;33547;49.044;1.156;2022-11-15T06:11:09;18.50;65.50
47791;DHT22;33547;49.044;1.156;2022-11-15T06:13:35;18.60;65.50
47791;DHT22;33547;49.044;1.156;2022-11-15T06:16:01;18.60;65.50
47791;DHT22;33547;49.044;1.156;2022-11-15T06:18:27;18.60;65.40
47791;DHT22;33547;49.044;1.156;2022-11-15T06:20:53;18.70;65.40
47791;DHT22;33547;49.044;1.156;2022-11-15T06:23:19;18.70;65.50
47791;DHT22;33547;49.044;1.156;2022-11-15T06:25:44;18.80;65.80
47791;DHT22;33547;49.044;1.156;2022-11-15T06:28:10;19.00;65.60
47791;DHT22;33547;49.044;1.156;2022-11-15T06:30:36;19.00;65.10
47791;DHT22;33547;49.044;1.156;2022-11-15T06:33:04;19.10;65.00
47791;DHT22;33547;49.044;1.156;2022-11-15T06:35:32;19.10;64.80
47791;DHT22;33547;49.044;1.156;2022-11-15T06:38:06;19.20;64.90
47791;DHT22;33547;49.044;1.156;2022-11-15T06:40:35;19.20;64.80
47791;DHT22;33547;49.044;1.156;2022-11-15T06:43:03;19.30;64.70
47791;DHT22;33547;49.044;1.156;2022-11-15T06:45:30;19.30;64.60
47791;DHT22;33547;49.044;1.156;2022-11-15T06:47:56;19.40;64.60
47791;DHT22;33547;49.044;1.156;2022-11-15T06:50:22;19.40;65.20
47791;DHT22;33547;49.044;1.156;2022-11-15T06:52:48;19.50;64.40
47791;DHT22;33547;49.044;1.156;2022-11-15T06:55:14;19.50;64.20
47791;DHT22;33547;49.044;1.156;2022-11-15T06:57:51;19.50;64.20
47791;DHT22;33547;49.044;1.156;2022-11-15T07:00:19;19.50;64.10
47791;DHT22;33547;49.044;1.156;2022-11-15T07:02:47;19.60;64.10
47791;DHT22;33547;49.044;1.156;2022-11-15T07:05:13;19.60;64.10
47791;DHT22;33547;49.044;1.156;2022-11-15T07:07:40;19.70;64.10
47791;DHT22;33547;49.044;1.156;2022-11-15T07:10:06;19.70;64.00
47791;DHT22;33547;49.044;1.156;2022-11-15T07:12:33;19.70;63.90
47791;DHT22;33547;49.044;1.156;2022-11-15T07:14:59;19.70;65.20
47791;DHT22;33547;49.044;1.156;2022-11-15T07:17:24;19.70;64.70
47791;DHT22;33547;49.044;1.156;2022-11-15T07:19:50;19.70;64.00
47791;DHT22;33547;49.044;1.156;2022-11-15T07:22:16;19.70;63.90
47791;DHT22;33547;49.044;1.156;2022-11-15T07:24:41;19.70;63.90
47791;DHT22;33547;49.044;1.156;2022-11-15T07:27:07;19.70;63.80
47791;DHT22;33547;49.044;1.156;2022-11-15T07:29:36;19.70;63.80
47791;DHT22;33547;49.044;1.156;2022-11-15T07:32:02;19.70;63.80
47791;DHT22;33547;49.044;1.156;2022-11-15T07:34:28;19.70;63.80
47791;DHT22;33547;49.044;1.156;2022-11-15T07:36:54;19.70;63.80
47791;DHT22;33547;49.044;1.156;2022-11-15T07:39:20;19.60;63.80
47791;DHT22;33547;49.044;1.156;2022-11-15T07:41:45;19.60;63.50
47791;DHT22;33547;49.044;1.156;2022-11-15T07:44:13;19.60;63.50
47791;DHT22;33547;49.044;1.156;2022-11-15T07:46:39;19.60;63.50
47791;DHT22;33547;49.044;1.156;2022-11-15T07:49:04;19.60;63.40
47791;DHT22;33547;49.044;1.156;2022-11-15T07:51:30;19.50;63.30
47791;DHT22;33547;49.044;1.156;2022-11-15T07:53:56;19.50;63.20
47791;DHT22;33547;49.044;1.156;2022-11-15T07:56:22;19.50;63.20
47791;DHT22;33547;49.044;1.156;2022-11-15T07:58:48;19.50;63.20
47791;DHT22;33547;49.044;1.156;2022-11-15T08:01:15;19.50;63.20
47791;DHT22;33547;49.044;1.156;2022-11-15T08:03:41;19.50;63.20
47791;DHT22;33547;49.044;1.156;2022-11-15T08:06:07;19.50;63.10
47791;DHT22;33547;49.044;1.156;2022-11-15T08:08:33;19.50;63.20
47791;DHT22;33547;49.044;1.156;2022-11-15T08:11:01;19.40;62.90
47791;DHT22;33547;49.044;1.156;2022-11-15T08:13:28;19.40;63.00
47791;DHT22;33547;49.044;1.156;2022-11-15T08:15:58;19.40;63.00
47791;DHT22;33547;49.044;1.156;2022-11-15T08:18:25;19.40;63.20
47791;DHT22;33547;49.044;1.156;2022-11-15T08:21:00;19.30;63.10
47791;DHT22;33547;49.044;1.156;2022-11-15T08:23:27;19.30;63.20
47791;DHT22;33547;49.044;1.156;2022-11-15T08:25:58;19.30;63.20
47791;DHT22;33547;49.044;1.156;2022-11-15T08:28:28;19.30;63.20
47791;DHT22;33547;49.044;1.156;2022-11-15T08:30:57;19.30;63.20
47791;DHT22;33547;49.044;1.156;2022-11-15T08:33:23;19.20;63.20
47791;DHT22;33547;49.044;1.156;2022-11-15T08:35:49;19.20;63.20
47791;DHT22;33547;49.044;1.156;2022-11-15T08:38:15;19.20;63.30
47791;DHT22;33547;49.044;1.156;2022-11-15T08:40:41;19.20;63.20
47791;DHT22;33547;49.044;1.156;2022-11-15T08:43:06;19.20;63.20
47791;DHT22;33547;49.044;1.156;2022-11-15T08:45:34;19.20;63.10
47791;DHT22;33547;49.044;1.156;2022-11-15T08:48:02;19.10;62.90
47791;DHT22;33547;49.044;1.156;2022-11-15T08:50:28;19.10;63.00
47791;DHT22;33547;49.044;1.156;2022-11-15T08:52:54;19.10;63.00
47791;DHT22;33547;49.044;1.156;2022-11-15T08:55:20;19.10;63.00
47791;DHT22;33547;49.044;1.156;2022-11-15T08:57:46;19.10;63.00
47791;DHT22;33547;49.044;1.156;2022-11-15T09:00:12;19.10;62.90
47791;DHT22;33547;49.044;1.156;2022-11-15T09:02:39;19.10;62.60
47791;DHT22;33547;49.044;1.156;2022-11-15T09:05:06;19.00;62.50
47791;DHT22;33547;49.044;1.156;2022-11-15T09:07:32;19.00;62.40
47791;DHT22;33547;49.044;1.156;2022-11-15T09:09:58;19.00;62.40
47791;DHT22;33547;49.044;1.156;2022-11-15T09:12:24;19.00;62.50
47791;DHT22;33547;49.044;1.156;2022-11-15T09:14:50;18.90;62.10
47791;DHT22;33547;49.044;1.156;2022-11-15T09:17:16;18.90;62.10
47791;DHT22;33547;49.044;1.156;2022-11-15T09:19:41;18.90;62.40
47791;DHT22;33547;49.044;1.156;2022-11-15T09:22:07;18.90;62.10
47791;DHT22;33547;49.044;1.156;2022-11-15T09:24:34;18.90;62.10
47791;DHT22;33547;49.044;1.156;2022-11-15T09:27:00;18.90;62.20
47791;DHT22;33547;49.044;1.156;2022-11-15T09:29:26;18.80;62.10
47791;DHT22;33547;49.044;1.156;2022-11-15T09:31:52;18.80;61.80
47791;DHT22;33547;49.044;1.156;2022-11-15T09:34:18;18.80;61.90
47791;DHT22;33547;49.044;1.156;2022-11-15T09:36:45;18.80;62.10
47791;DHT22;33547;49.044;1.156;2022-11-15T09:39:10;18.80;62.00
47791;DHT22;33547;49.044;1.156;2022-11-15T09:41:55;18.80;62.30
47791;DHT22;33547;49.044;1.156;2022-11-15T09:50:40;18.70;62.00
47791;DHT22;33547;49.044;1.156;2022-11-15T09:53:12;18.60;62.30
47791;DHT22;33547;49.044;1.156;2022-11-15T09:56:05;18.60;61.70
47791;DHT22;33547;49.044;1.156;2022-11-15T10:04:33;18.60;62.10
47791;DHT22;33547;49.044;1.156;2022-11-15T10:07:13;18.50;62.00
47791;DHT22;33547;49.044;1.156;2022-11-15T10:09:47;18.50;62.00
47791;DHT22;33547;49.044;1.156;2022-11-15T10:12:18;18.50;62.00
47791;DHT22;33547;49.044;1.156;2022-11-15T10:14:45;18.50;62.00
47791;DHT22;33547;49.044;1.156;2022-11-15T10:27:35;18.40;62.30
47791;DHT22;33547;49.044;1.156;2022-11-15T10:30:01;18.40;62.50
47791;DHT22;33547;49.044;1.156;2022-11-15T10:32:30;18.40;62.10
47791;DHT22;33547;49.044;1.156;2022-11-15T10:34:58;18.40;62.10
47791;DHT22;33547;49.044;1.156;2022-11-15T10:37:29;18.40;62.00
47791;DHT22;33547;49.044;1.156;2022-11-15T10:40:04;18.40;61.90
47791;DHT22;33547;49.044;1.156;2022-11-15T10:42:32;18.50;62.20
47791;DHT22;33547;49.044;1.156;2022-11-15T10:44:57;18.50;62.30
47791;DHT22;33547;49.044;1.156;2022-11-15T10:47:29;18.60;62.30
47791;DHT22;33547;49.044;1.156;2022-11-15T10:52:27;18.60;62.10
47791;DHT22;33547;49.044;1.156;2022-11-15T10:57:52;18.70;62.10
47791;DHT22;33547;49.044;1.156;2022-11-15T11:05:31;18.70;62.10
47791;DHT22;33547;49.044;1.156;2022-11-15T11:08:18;18.80;62.20
47791;DHT22;33547;49.044;1.156;2022-11-15T11:10:58;18.80;62.20
47791;DHT22;33547;49.044;1.156;2022-11-15T11:13:38;18.80;62.20
47791;DHT22;33547;49.044;1.156;2022-11-15T11:22:11;18.90;62.30
47791;DHT22;33547;49.044;1.156;2022-11-15T11:25:28;18.90;62.30
47791;DHT22;33547;49.044;1.156;2022-11-15T11:37:07;19.00;62.40
47791;DHT22;33547;49.044;1.156;2022-11-15T11:49:18;19.00;62.30
47791;DHT22;33547;49.044;1.156;2022-11-15T11:55:14;19.10;62.40
47791;DHT22;33547;49.044;1.156;2022-11-15T12:03:32;19.10;62.30
47791;DHT22;33547;49.044;1.156;2022-11-15T12:06:25;19.10;62.30
47791;DHT22;33547;49.044;1.156;2022-11-15T12:11:50;19.20;62.30
47791;DHT22;33547;49.044;1.156;2022-11-15T12:15:09;19.20;62.30
47791;DHT22;33547;49.044;1.156;2022-11-15T12:17:30;19.20;62.20
47791;DHT22;33547;49.044;1.156;2022-11-15T12:20:02;19.10;62.20
47791;DHT22;33547;49.044;1.156;2022-11-15T12:25:59;19.20;62.20
47791;DHT22;33547;49.044;1.156;2022-11-15T12:34:03;19.10;62.20
47791;DHT22;33547;49.044;1.156;2022-11-15T12:36:49;19.10;62.10
47791;DHT22;33547;49.044;1.156;2022-11-15T12:39:16;19.10;62.20
47791;DHT22;33547;49.044;1.156;2022-11-15T12:49:48;19.00;62.10
47791;DHT22;33547;49.044;1.156;2022-11-15T12:52:15;19.00;62.10
47791;DHT22;33547;49.044;1.156;2022-11-15T12:59:56;19.00;62.10
47791;DHT22;33547;49.044;1.156;2022-11-15T13:02:44;19.00;62.10
47791;DHT22;33547;49.044;1.156;2022-11-15T13:23:10;18.90;62.20
47791;DHT22;33547;49.044;1.156;2022-11-15T13:28:52;19.00;62.30
47791;DHT22;33547;49.044;1.156;2022-11-15T13:34:02;19.00;62.20
47791;DHT22;33547;49.044;1.156;2022-11-15T13:36:39;19.00;62.20
47791;DHT22;33547;49.044;1.156;2022-11-15T13:39:14;19.10;62.30
47791;DHT22;33547;49.044;1.156;2022-11-15T13:44:32;19.10;62.20
47791;DHT22;33547;49.044;1.156;2022-11-15T13:47:04;19.10;62.20
47791;DHT22;33547;49.044;1.156;2022-11-15T13:49:39;19.10;62.20
47791;DHT22;33547;49.044;1.156;2022-11-15T13:52:07;19.20;62.30
47791;DHT22;33547;49.044;1.156;2022-11-15T13:57:18;19.20;62.40
47791;DHT22;33547;49.044;1.156;2022-11-15T13:59:53;19.20;62.30
47791;DHT22;33547;49.044;1.156;2022-11-15T14:02:35;19.10;62.30
47791;DHT22;33547;49.044;1.156;2022-11-15T14:05:19;19.20;62.30
47791;DHT22;33547;49.044;1.156;2022-11-15T14:07:57;19.20;62.30
47791;DHT22;33547;49.044;1.156;2022-11-15T14:10:34;19.10;62.30
47791;DHT22;33547;49.044;1.156;2022-11-15T14:13:02;19.10;62.30
47791;DHT22;33547;49.044;1.156;2022-11-15T14:15:33;19.10;62.30
47791;DHT22;33547;49.044;1.156;2022-11-15T14:18:00;19.10;62.30
47791;DHT22;33547;49.044;1.156;2022-11-15T14:20:30;19.10;62.40
47791;DHT22;33547;49.044;1.156;2022-11-15T14:25:57;19.10;62.50
47791;DHT22;33547;49.044;1.156;2022-11-15T14:30:51;19.10;62.50
47791;DHT22;33547;49.044;1.156;2022-11-15T14:33:32;19.10;62.50
47791;DHT22;33547;49.044;1.156;2022-11-15T14:38:43;19.00;62.50
47791;DHT22;33547;49.044;1.156;2022-11-15T14:41:22;19.00;62.50
47791;DHT22;33547;49.044;1.156;2022-11-15T14:43:50;19.00;62.50
47791;DHT22;33547;49.044;1.156;2022-11-15T14:46:17;19.00;62.50
47791;DHT22;33547;49.044;1.156;2022-11-15T14:48:43;19.00;62.70
47791;DHT22;33547;49.044;1.156;2022-11-15T14:51:18;19.00;62.50
47791;DHT22;33547;49.044;1.156;2022-11-15T14:53:45;19.00;62.50
47791;DHT22;33547;49.044;1.156;2022-11-15T14:56:12;19.00;62.50
47791;DHT22;33547;49.044;1.156;2022-11-15T14:58:39;19.00;62.50
47791;DHT22;33547;49.044;1.156;2022-11-15T15:01:25;19.00;62.40
47791;DHT22;33547;49.044;1.156;2022-11-15T15:03:53;19.10;62.50
47791;DHT22;33547;49.044;1.156;2022-11-15T15:06:23;19.10;62.40
47791;DHT22;33547;49.044;1.156;2022-11-15T15:08:49;19.10;62.40
47791;DHT22;33547;49.044;1.156;2022-11-15T15:11:34;19.10;62.30
47791;DHT22;33547;49.044;1.156;2022-11-15T15:14:00;19.20;62.30
47791;DHT22;33547;49.044;1.156;2022-11-15T15:16:26;19.20;62.30
47791;DHT22;33547;49.044;1.156;2022-11-15T15:18:53;19.20;62.30
47791;DHT22;33547;49.044;1.156;2022-11-15T15:21:24;19.20;62.20
47791;DHT22;33547;49.044;1.156;2022-11-15T15:23:53;19.20;62.20
47791;DHT22;33547;49.044;1.156;2022-11-15T15:26:23;19.20;62.20
47791;DHT22;33547;49.044;1.156;2022-11-15T15:28:49;19.30;62.30
47791;DHT22;33547;49.044;1.156;2022-11-15T15:31:17;19.20;62.30
47791;DHT22;33547;49.044;1.156;2022-11-15T15:33:43;19.30;62.30
47791;DHT22;33547;49.044;1.156;2022-11-15T15:36:14;19.30;62.30
47791;DHT22;33547;49.044;1.156;2022-11-15T15:38:45;19.30;62.30
47791;DHT22;33547;49.044;1.156;2022-11-15T15:41:13;19.30;62.30
47791;DHT22;33547;49.044;1.156;2022-11-15T15:43:40;19.20;62.20
47791;DHT22;33547;49.044;1.156;2022-11-15T15:46:14;19.30;62.30
47791;DHT22;33547;49.044;1.156;2022-11-15T15:48:41;19.30;62.40
47791;DHT22;33547;49.044;1.156;2022-11-15T15:51:07;19.20;62.30
47791;DHT22;33547;49.044;1.156;2022-11-15T15:53:34;19.30;62.30
47791;DHT22;33547;49.044;1.156;2022-11-15T15:56:00;19.30;62.30
47791;DHT22;33547;49.044;1.156;2022-11-15T15:58:25;19.20;62.30
47791;DHT22;33547;49.044;1.156;2022-11-15T16:00:51;19.20;62.30
47791;DHT22;33547;49.044;1.156;2022-11-15T16:03:17;19.20;62.30
47791;DHT22;33547;49.044;1.156;2022-11-15T16:05:43;19.20;63.00
47791;DHT22;33547;49.044;1.156;2022-11-15T16:08:23;19.20;62.40
47791;DHT22;33547;49.044;1.156;2022-11-15T16:10:50;19.20;62.30
47791;DHT22;33547;49.044;1.156;2022-11-15T16:13:16;19.20;62.30
47791;DHT22;33547;49.044;1.156;2022-11-15T16:15:43;19.20;62.30
47791;DHT22;33547;49.044;1.156;2022-11-15T16:18:15;19.20;62.30
47791;DHT22;33547;49.044;1.156;2022-11-15T16:23:12;19.10;62.30
47791;DHT22;33547;49.044;1.156;2022-11-15T16:25:44;19.10;62.20
47791;DHT22;33547;49.044;1.156;2022-11-15T16:28:21;19.10;62.20
47791;DHT22;33547;49.044;1.156;2022-11-15T16:30:47;19.10;62.20
47791;DHT22;33547;49.044;1.156;2022-11-15T16:33:14;19.10;62.20
47791;DHT22;33547;49.044;1.156;2022-11-15T16:35:40;19.00;62.20
47791;DHT22;33547;49.044;1.156;2022-11-15T16:38:09;19.10;62.30
47791;DHT22;33547;49.044;1.156;2022-11-15T16:40:39;19.00;62.20
47791;DHT22;33547;49.044;1.156;2022-11-15T16:43:05;19.00;62.20
47791;DHT22;33547;49.044;1.156;2022-11-15T16:45:33;19.00;62.30
47791;DHT22;33547;49.044;1.156;2022-11-15T16:47:59;19.00;62.40
47791;DHT22;33547;49.044;1.156;2022-11-15T16:50:28;19.00;62.30
47791;DHT22;33547;49.044;1.156;2022-11-15T16:52:56;18.90;62.30
47791;DHT22;33547;49.044;1.156;2022-11-15T16:55:26;19.00;62.30
47791;DHT22;33547;49.044;1.156;2022-11-15T16:57:54;19.00;62.30
47791;DHT22;33547;49.044;1.156;2022-11-15T17:00:22;18.90;62.30
47791;DHT22;33547;49.044;1.156;2022-11-15T17:02:49;19.00;62.30
47791;DHT22;33547;49.044;1.156;2022-11-15T17:05:18;18.90;62.20
47791;DHT22;33547;49.044;1.156;2022-11-15T17:07:49;19.00;62.20
47791;DHT22;33547;49.044;1.156;2022-11-15T17:10:19;19.00;62.20
47791;DHT22;33547;49.044;1.156;2022-11-15T17:12:46;19.00;62.20
47791;DHT22;33547;49.044;1.156;2022-11-15T17:15:13;19.00;62.20
47791;DHT22;33547;49.044;1.156;2022-11-15T17:17:39;19.10;62.20
47791;DHT22;33547;49.044;1.156;2022-11-15T17:20:10;19.10;62.20
47791;DHT22;33547;49.044;1.156;2022-11-15T17:22:41;19.10;62.20
47791;DHT22;33547;49.044;1.156;2022-11-15T17:25:07;19.10;62.10
47791;DHT22;33547;49.044;1.156;2022-11-15T17:27:33;19.10;62.10
47791;DHT22;33547;49.044;1.156;2022-11-15T17:29:59;19.20;62.10
47791;DHT22;33547;49.044;1.156;2022-11-15T17:32:25;19.20;62.10
47791;DHT22;33547;49.044;1.156;2022-11-15T17:34:50;19.20;62.20
47791;DHT22;33547;49.044;1.156;2022-11-15T17:37:16;19.20;62.20
47791;DHT22;33547;49.044;1.156;2022-11-15T17:39:42;19.20;62.20
47791;DHT22;33547;49.044;1.156;2022-11-15T17:42:08;19.20;62.30
47791;DHT22;33547;49.044;1.156;2022-11-15T17:44:33;19.20;62.20
47791;DHT22;33547;49.044;1.156;2022-11-15T17:46:59;19.20;62.20
47791;DHT22;33547;49.044;1.156;2022-11-15T17:49:25;19.20;62.20
47791;DHT22;33547;49.044;1.156;2022-11-15T17:51:51;19.20;62.20
47791;DHT22;33547;49.044;1.156;2022-11-15T17:54:17;19.10;62.20
47791;DHT22;33547;49.044;1.156;2022-11-15T17:56:43;19.10;62.20
47791;DHT22;33547;49.044;1.156;2022-11-15T17:59:09;19.10;62.30
47791;DHT22;33547;49.044;1.156;2022-11-15T18:01:36;19.10;62.20
47791;DHT22;33547;49.044;1.156;2022-11-15T18:04:06;19.10;62.30
47791;DHT22;33547;49.044;1.156;2022-11-15T18:06:34;19.00;62.30
47791;DHT22;33547;49.044;1.156;2022-11-15T18:09:01;19.10;62.20
47791;DHT22;33547;49.044;1.156;2022-11-15T18:11:31;19.00;62.20
47791;DHT22;33547;49.044;1.156;2022-11-15T18:14:02;19.10;62.30
47791;DHT22;33547;49.044;1.156;2022-11-15T18:16:31;19.10;62.30
47791;DHT22;33547;49.044;1.156;2022-11-15T18:18:58;19.00;62.20
47791;DHT22;33547;49.044;1.156;2022-11-15T18:21:29;19.00;62.20
47791;DHT22;33547;49.044;1.156;2022-11-15T18:23:58;19.00;62.20
47791;DHT22;33547;49.044;1.156;2022-11-15T18:26:26;19.00;62.10